首页
METAR-TAF:

METAR-TAF

机场 :

南京禄口国际机场

南京, 中华人民共和国

纬度: 32-00N, 经度: 118-48E, 海拔: 12米

当前天气观测

该预报发布于1小时和16分钟前的15:00 UTC
风速2节,风向
温度 -1°C
湿度 80%
气压 1036 hPa
能見度: 7000

METAR: ZSNJ 131500Z 09001MPS 7000 NSC M01/M04 Q1036 NOSIG

时间: 00:16 (16:16 UTC)

预报

该预报发布于7小时和8分钟前的09:08 UTC
预报有效从13日的 12点(UTC)到 14日的 12点(UTC)
风速6节,风向北转东北
能見度: 3000
成为
从 13日的 19点(UTC)到 13日的 20点(UTC)
能見度: 1500
轻雾
成为
从 14日的 00点(UTC)到 14日的 01点(UTC)
能見度: 3000

TAF: ZSNJ 130908Z 1312/1412 03003MPS 3000 HZ NSC TX10/1406Z TNM02/22Z BECMG 1319/1320 1500 BR BECMG 1400/1401 3000 HZ

超过4000个机场的气象观测和天气预报(METAR&TAF报告)。

可查询的气象台以黄色和红色小点在地图上表示。

将鼠标移到小点上方,可查看气象台名称。

然后点击查看天气观测和预报。

如需切换地图:点击带黑十字的绿色按钮放大地图;点击带横线的绿色按钮缩小地图;或者点击绿色箭头查看邻近地区的地图。


METAR-TAF: